sensor_id;sensor_type;location;lat;lon;timestamp;pressure;altitude;pressure_sealevel;temperature;humidity
53868;BME280;41577;47.470;19.080;2023-08-17T00:00:05;100460.75;;;20.81;100.00
53868;BME280;41577;47.470;19.080;2023-08-17T00:00:18;100454.75;;;20.79;100.00
53868;BME280;41577;47.470;19.080;2023-08-17T00:00:30;100458.28;;;20.79;100.00
53868;BME280;41577;47.470;19.080;2023-08-17T00:00:42;100462.06;;;20.78;100.00
53868;BME280;41577;47.470;19.080;2023-08-17T00:00:53;100460.16;;;20.79;100.00
53868;BME280;41577;47.470;19.080;2023-08-17T00:01:05;100455.84;;;20.78;100.00
53868;BME280;41577;47.470;19.080;2023-08-17T00:01:17;100456.66;;;20.78;100.00
53868;BME280;41577;47.470;19.080;2023-08-17T00:01:29;100461.81;;;20.80;100.00
53868;BME280;41577;47.470;19.080;2023-08-17T00:01:41;100463.69;;;20.79;100.00
53868;BME280;41577;47.470;19.080;2023-08-17T00:01:53;100457.47;;;20.79;100.00
53868;BME280;41577;47.470;19.080;2023-08-17T00:02:05;100454.75;;;20.79;100.00
53868;BME280;41577;47.470;19.080;2023-08-17T00:02:17;100459.34;;;20.78;100.00
53868;BME280;41577;47.470;19.080;2023-08-17T00:02:28;100455.84;;;20.78;100.00
53868;BME280;41577;47.470;19.080;2023-08-17T00:02:40;100446.59;;;20.79;100.00
53868;BME280;41577;47.470;19.080;2023-08-17T00:02:52;100453.13;;;20.78;100.00
53868;BME280;41577;47.470;19.080;2023-08-17T00:03:04;100447.69;;;20.78;100.00
53868;BME280;41577;47.470;19.080;2023-08-17T00:03:16;100453.13;;;20.78;100.00
53868;BME280;41577;47.470;19.080;2023-08-17T00:03:28;100452.28;;;20.77;100.00
53868;BME280;41577;47.470;19.080;2023-08-17T00:03:40;100447.34;;;20.74;100.00
53868;BME280;41577;47.470;19.080;2023-08-17T00:03:52;100448.75;;;20.77;100.00
53868;BME280;41577;47.470;19.080;2023-08-17T00:04:04;100453.34;;;20.76;100.00
53868;BME280;41577;47.470;19.080;2023-08-17T00:04:16;100444.41;;;20.76;100.00
53868;BME280;41577;47.470;19.080;2023-08-17T00:04:29;100448.97;;;20.75;100.00
53868;BME280;41577;47.470;19.080;2023-08-17T00:04:41;100459.84;;;20.75;100.00
53868;BME280;41577;47.470;19.080;2023-08-17T00:04:52;100448.16;;;20.75;100.00
53868;BME280;41577;47.470;19.080;2023-08-17T00:05:05;100449.25;;;20.74;100.00
53868;BME280;41577;47.470;19.080;2023-08-17T00:05:17;100454.41;;;20.75;100.00
53868;BME280;41577;47.470;19.080;2023-08-17T00:05:29;100450.66;;;20.76;100.00
53868;BME280;41577;47.470;19.080;2023-08-17T00:05:40;100451.47;;;20.77;100.00
53868;BME280;41577;47.470;19.080;2023-08-17T00:05:52;100452.53;;;20.76;100.00
53868;BME280;41577;47.470;19.080;2023-08-17T00:06:04;100448.97;;;20.75;100.00
53868;BME280;41577;47.470;19.080;2023-08-17T00:06:16;100449.84;;;20.76;100.00
53868;BME280;41577;47.470;19.080;2023-08-17T00:06:28;100448.16;;;20.75;100.00
53868;BME280;41577;47.470;19.080;2023-08-17T00:06:40;100448.16;;;20.75;100.00
53868;BME280;41577;47.470;19.080;2023-08-17T00:06:52;100453.59;;;20.75;100.00
53868;BME280;41577;47.470;19.080;2023-08-17T00:07:04;100450.88;;;20.75;100.00
53868;BME280;41577;47.470;19.080;2023-08-17T00:07:15;100447.34;;;20.74;100.00
53868;BME280;41577;47.470;19.080;2023-08-17T00:07:27;100444.41;;;20.76;100.00
53868;BME280;41577;47.470;19.080;2023-08-17T00:07:39;100444.41;;;20.76;100.00
53868;BME280;41577;47.470;19.080;2023-08-17T00:07:51;100448.97;;;20.75;100.00
53868;BME280;41577;47.470;19.080;2023-08-17T00:08:03;100448.16;;;20.75;100.00
53868;BME280;41577;47.470;19.080;2023-08-17T00:08:15;100443.56;;;20.75;100.00
53868;BME280;41577;47.470;19.080;2023-08-17T00:08:27;100443.56;;;20.75;100.00
53868;BME280;41577;47.470;19.080;2023-08-17T00:08:38;100442.50;;;20.76;100.00
53868;BME280;41577;47.470;19.080;2023-08-17T00:08:50;100445.47;;;20.75;100.00
53868;BME280;41577;47.470;19.080;2023-08-17T00:09:02;100442.97;;;20.73;100.00
53868;BME280;41577;47.470;19.080;2023-08-17T00:09:14;100445.22;;;20.76;100.00
53868;BME280;41577;47.470;19.080;2023-08-17T00:09:26;100444.13;;;20.77;100.00
53868;BME280;41577;47.470;19.080;2023-08-17T00:09:38;100441.41;;;20.77;100.00
53868;BME280;41577;47.470;19.080;2023-08-17T00:09:50;100443.88;;;20.79;100.00
53868;BME280;41577;47.470;19.080;2023-08-17T00:10:03;100439.53;;;20.78;100.00
53868;BME280;41577;47.470;19.080;2023-08-17T00:10:15;100444.69;;;20.79;100.00
53868;BME280;41577;47.470;19.080;2023-08-17T00:10:27;100445.28;;;20.81;100.00
53868;BME280;41577;47.470;19.080;2023-08-17T00:10:39;100437.38;;;20.80;100.00
53868;BME280;41577;47.470;19.080;2023-08-17T00:10:51;100443.38;;;20.82;100.00
53868;BME280;41577;47.470;19.080;2023-08-17T00:11:03;100446.09;;;20.82;100.00
53868;BME280;41577;47.470;19.080;2023-08-17T00:11:15;100444.22;;;20.82;100.00
53868;BME280;41577;47.470;19.080;2023-08-17T00:11:27;100439.03;;;20.81;100.00
53868;BME280;41577;47.470;19.080;2023-08-17T00:11:38;100439.03;;;20.81;100.00
53868;BME280;41577;47.470;19.080;2023-08-17T00:11:50;100446.09;;;20.82;100.00
53868;BME280;41577;47.470;19.080;2023-08-17T00:12:04;100444.22;;;20.82;100.00
53868;BME280;41577;47.470;19.080;2023-08-17T00:12:17;100439.84;;;20.81;100.00
53868;BME280;41577;47.470;19.080;2023-08-17T00:12:29;100453.16;;;20.83;100.00
53868;BME280;41577;47.470;19.080;2023-08-17T00:12:40;100442.31;;;20.83;100.00
53868;BME280;41577;47.470;19.080;2023-08-17T00:12:52;100443.38;;;20.82;100.00
53868;BME280;41577;47.470;19.080;2023-08-17T00:13:04;100442.31;;;20.83;100.00
53868;BME280;41577;47.470;19.080;2023-08-17T00:13:16;100444.22;;;20.82;100.00
53868;BME280;41577;47.470;19.080;2023-08-17T00:13:28;100443.38;;;20.82;100.00
53868;BME280;41577;47.470;19.080;2023-08-17T00:13:39;100448.81;;;20.82;100.00
53868;BME280;41577;47.470;19.080;2023-08-17T00:13:51;100443.38;;;20.82;100.00
53868;BME280;41577;47.470;19.080;2023-08-17T00:14:04;100445.28;;;20.81;100.00
53868;BME280;41577;47.470;19.080;2023-08-17T00:14:16;100444.47;;;20.81;100.00
53868;BME280;41577;47.470;19.080;2023-08-17T00:14:27;100444.47;;;20.81;100.00
53868;BME280;41577;47.470;19.080;2023-08-17T00:14:39;100438.78;;;20.82;100.00
53868;BME280;41577;47.470;19.080;2023-08-17T00:14:51;100443.66;;;20.80;100.00
53868;BME280;41577;47.470;19.080;2023-08-17T00:15:04;100444.47;;;20.81;100.00
53868;BME280;41577;47.470;19.080;2023-08-17T00:15:16;100451.78;;;20.80;100.00
53868;BME280;41577;47.470;19.080;2023-08-17T00:15:28;100451.78;;;20.80;100.00
53868;BME280;41577;47.470;19.080;2023-08-17T00:15:40;100448.22;;;20.80;100.00
53868;BME280;41577;47.470;19.080;2023-08-17T00:15:52;100444.69;;;20.79;100.00
53868;BME280;41577;47.470;19.080;2023-08-17T00:16:04;100449.88;;;20.81;100.00
53868;BME280;41577;47.470;19.080;2023-08-17T00:16:16;100443.06;;;20.78;100.00
53868;BME280;41577;47.470;19.080;2023-08-17T00:16:29;100444.69;;;20.79;100.00
53868;BME280;41577;47.470;19.080;2023-08-17T00:16:41;100446.59;;;20.79;100.00
53868;BME280;41577;47.470;19.080;2023-08-17T00:16:52;100441.16;;;20.79;100.00
53868;BME280;41577;47.470;19.080;2023-08-17T00:17:04;100444.97;;;20.78;100.00
53868;BME280;41577;47.470;19.080;2023-08-17T00:17:16;100446.84;;;20.77;100.00
53868;BME280;41577;47.470;19.080;2023-08-17T00:17:28;100446.03;;;20.77;100.00
53868;BME280;41577;47.470;19.080;2023-08-17T00:17:40;100440.59;;;20.77;100.00
53868;BME280;41577;47.470;19.080;2023-08-17T00:17:51;100447.13;;;20.76;100.00
53868;BME280;41577;47.470;19.080;2023-08-17T00:18:04;100446.84;;;20.77;100.00
53868;BME280;41577;47.470;19.080;2023-08-17T00:18:15;100445.22;;;20.76;100.00
53868;BME280;41577;47.470;19.080;2023-08-17T00:18:27;100445.22;;;20.76;100.00
53868;BME280;41577;47.470;19.080;2023-08-17T00:18:39;100446.03;;;20.77;100.00
53868;BME280;41577;47.470;19.080;2023-08-17T00:18:51;100448.75;;;20.77;100.00
53868;BME280;41577;47.470;19.080;2023-08-17T00:19:03;100446.03;;;20.77;100.00
53868;BME280;41577;47.470;19.080;2023-08-17T00:19:15;100438.69;;;20.77;100.00
53868;BME280;41577;47.470;19.080;2023-08-17T00:19:28;100443.31;;;20.77;100.00
53868;BME280;41577;47.470;19.080;2023-08-17T00:19:40;100439.78;;;20.76;100.00
53868;BME280;41577;47.470;19.080;2023-08-17T00:19:52;100444.41;;;20.76;100.00
53868;BME280;41577;47.470;19.080;2023-08-17T00:20:04;100437.88;;;20.77;100.00
53868;BME280;41577;47.470;19.080;2023-08-17T00:20:16;100437.88;;;20.77;100.00
53868;BME280;41577;47.470;19.080;2023-08-17T00:20:28;100440.59;;;20.77;100.00
53868;BME280;41577;47.470;19.080;2023-08-17T00:20:40;100432.47;;;20.77;100.00
53868;BME280;41577;47.470;19.080;2023-08-17T00:20:52;100438.69;;;20.77;100.00
53868;BME280;41577;47.470;19.080;2023-08-17T00:21:04;100443.06;;;20.78;100.00
53868;BME280;41577;47.470;19.080;2023-08-17T00:21:15;100435.75;;;20.79;100.00
53868;BME280;41577;47.470;19.080;2023-08-17T00:21:27;100438.22;;;20.80;100.00
53868;BME280;41577;47.470;19.080;2023-08-17T00:21:39;100437.13;;;20.81;100.00
53868;BME280;41577;47.470;19.080;2023-08-17T00:21:51;100440.66;;;20.82;100.00
53868;BME280;41577;47.470;19.080;2023-08-17T00:22:03;100431.47;;;20.83;100.00
53868;BME280;41577;47.470;19.080;2023-08-17T00:22:15;100433.09;;;20.84;100.00
53868;BME280;41577;47.470;19.080;2023-08-17T00:22:27;100440.16;;;20.85;100.00
53868;BME280;41577;47.470;19.080;2023-08-17T00:22:38;100432.28;;;20.83;100.00
53868;BME280;41577;47.470;19.080;2023-08-17T00:22:50;100431.19;;;20.84;100.00
53868;BME280;41577;47.470;19.080;2023-08-17T00:23:02;100432.03;;;20.85;100.00
53868;BME280;41577;47.470;19.080;2023-08-17T00:23:14;100432.84;;;20.85;100.00
53868;BME280;41577;47.470;19.080;2023-08-17T00:23:26;100438.03;;;20.87;100.00
53868;BME280;41577;47.470;19.080;2023-08-17T00:23:38;100432.59;;;20.87;100.00
53868;BME280;41577;47.470;19.080;2023-08-17T00:23:50;100433.41;;;20.87;100.00
53868;BME280;41577;47.470;19.080;2023-08-17T00:24:02;100433.41;;;20.87;100.00
53868;BME280;41577;47.470;19.080;2023-08-17T00:24:14;100430.69;;;20.87;100.00
53868;BME280;41577;47.470;19.080;2023-08-17T00:24:26;100434.22;;;20.88;100.00
53868;BME280;41577;47.470;19.080;2023-08-17T00:24:37;100426.06;;;20.88;100.00
53868;BME280;41577;47.470;19.080;2023-08-17T00:24:49;100426.88;;;20.88;100.00
53868;BME280;41577;47.470;19.080;2023-08-17T00:25:01;100435.84;;;20.89;100.00
53868;BME280;41577;47.470;19.080;2023-08-17T00:25:13;100429.38;;;20.90;100.00
53868;BME280;41577;47.470;19.080;2023-08-17T00:25:25;100432.06;;;20.90;100.00
53868;BME280;41577;47.470;19.080;2023-08-17T00:25:37;100427.72;;;20.89;100.00
53868;BME280;41577;47.470;19.080;2023-08-17T00:25:49;100438.31;;;20.91;100.00
53868;BME280;41577;47.470;19.080;2023-08-17T00:26:00;100436.41;;;20.91;100.00
53868;BME280;41577;47.470;19.080;2023-08-17T00:26:12;100436.41;;;20.91;100.00
53868;BME280;41577;47.470;19.080;2023-08-17T00:26:24;100436.69;;;20.89;100.00
53868;BME280;41577;47.470;19.080;2023-08-17T00:26:36;100434.78;;;20.90;100.00
53868;BME280;41577;47.470;19.080;2023-08-17T00:26:47;100441.03;;;20.91;100.00
53868;BME280;41577;47.470;19.080;2023-08-17T00:26:59;100434.78;;;20.90;100.00
53868;BME280;41577;47.470;19.080;2023-08-17T00:27:11;100432.06;;;20.90;100.00
53868;BME280;41577;47.470;19.080;2023-08-17T00:27:23;100435.38;;;20.92;100.00
53868;BME280;41577;47.470;19.080;2023-08-17T00:27:36;100435.38;;;20.92;100.00
53868;BME280;41577;47.470;19.080;2023-08-17T00:27:48;100429.94;;;20.92;100.00
53868;BME280;41577;47.470;19.080;2023-08-17T00:28:01;100432.66;;;20.92;100.00
53868;BME280;41577;47.470;19.080;2023-08-17T00:28:13;100438.06;;;20.92;100.00
53868;BME280;41577;47.470;19.080;2023-08-17T00:28:25;100433.22;;;20.94;100.00
53868;BME280;41577;47.470;19.080;2023-08-17T00:28:37;100428.03;;;20.93;100.00
53868;BME280;41577;47.470;19.080;2023-08-17T00:28:49;100436.19;;;20.93;100.00
53868;BME280;41577;47.470;19.080;2023-08-17T00:29:00;100434.28;;;20.93;100.00
53868;BME280;41577;47.470;19.080;2023-08-17T00:29:12;100435.38;;;20.92;100.00
53868;BME280;41577;47.470;19.080;2023-08-17T00:29:24;100434.56;;;20.92;100.00
53868;BME280;41577;47.470;19.080;2023-08-17T00:29:36;100430.50;;;20.94;100.00
53868;BME280;41577;47.470;19.080;2023-08-17T00:29:48;100439.69;;;20.93;100.00
53868;BME280;41577;47.470;19.080;2023-08-17T00:30:00;100432.38;;;20.94;100.00
53868;BME280;41577;47.470;19.080;2023-08-17T00:30:13;100435.09;;;20.94;100.00
53868;BME280;41577;47.470;19.080;2023-08-17T00:30:25;100430.50;;;20.94;100.00
53868;BME280;41577;47.470;19.080;2023-08-17T00:30:36;100432.66;;;20.92;100.00
53868;BME280;41577;47.470;19.080;2023-08-17T00:30:48;100430.50;;;20.94;100.00
53868;BME280;41577;47.470;19.080;2023-08-17T00:31:00;100433.22;;;20.94;100.00
53868;BME280;41577;47.470;19.080;2023-08-17T00:31:12;100431.56;;;20.93;100.00
53868;BME280;41577;47.470;19.080;2023-08-17T00:31:24;100430.50;;;20.94;100.00
53868;BME280;41577;47.470;19.080;2023-08-17T00:31:36;100424.22;;;20.94;100.00
53868;BME280;41577;47.470;19.080;2023-08-17T00:31:48;100429.66;;;20.94;100.00
53868;BME280;41577;47.470;19.080;2023-08-17T00:32:00;100430.50;;;20.94;100.00
53868;BME280;41577;47.470;19.080;2023-08-17T00:32:12;100424.50;;;20.92;100.00
53868;BME280;41577;47.470;19.080;2023-08-17T00:32:23;100417.97;;;20.93;100.00
53868;BME280;41577;47.470;19.080;2023-08-17T00:32:35;100423.41;;;20.93;100.00
53868;BME280;41577;47.470;19.080;2023-08-17T00:32:47;100429.13;;;20.92;100.00
53868;BME280;41577;47.470;19.080;2023-08-17T00:32:59;100426.13;;;20.93;100.00
53868;BME280;41577;47.470;19.080;2023-08-17T00:33:11;100419.66;;;20.94;100.00
53868;BME280;41577;47.470;19.080;2023-08-17T00:33:24;100415.03;;;20.95;100.00
53868;BME280;41577;47.470;19.080;2023-08-17T00:33:36;100424.22;;;20.94;100.00
53868;BME280;41577;47.470;19.080;2023-08-17T00:33:48;100424.50;;;20.92;100.00
53868;BME280;41577;47.470;19.080;2023-08-17T00:34:00;100431.31;;;20.95;100.00
53868;BME280;41577;47.470;19.080;2023-08-17T00:34:12;100429.66;;;20.94;100.00
53868;BME280;41577;47.470;19.080;2023-08-17T00:34:23;100433.22;;;20.94;100.00
53868;BME280;41577;47.470;19.080;2023-08-17T00:34:38;100429.41;;;20.95;100.00
53868;BME280;41577;47.470;19.080;2023-08-17T00:34:49;100426.69;;;20.95;100.00
53868;BME280;41577;47.470;19.080;2023-08-17T00:35:01;100426.69;;;20.95;100.00
53868;BME280;41577;47.470;19.080;2023-08-17T00:35:13;100429.41;;;20.95;100.00
53868;BME280;41577;47.470;19.080;2023-08-17T00:35:25;100431.06;;;20.96;100.00
53868;BME280;41577;47.470;19.080;2023-08-17T00:35:37;100422.09;;;20.96;100.00
53868;BME280;41577;47.470;19.080;2023-08-17T00:35:49;100430.22;;;20.96;100.00
53868;BME280;41577;47.470;19.080;2023-08-17T00:36:02;100424.78;;;20.96;100.00
53868;BME280;41577;47.470;19.080;2023-08-17T00:36:14;100432.13;;;20.95;100.00
53868;BME280;41577;47.470;19.080;2023-08-17T00:36:26;100432.94;;;20.96;100.00
53868;BME280;41577;47.470;19.080;2023-08-17T00:36:38;100427.50;;;20.96;100.00
53868;BME280;41577;47.470;19.080;2023-08-17T00:36:50;100433.78;;;20.96;100.00
53868;BME280;41577;47.470;19.080;2023-08-17T00:37:02;100429.97;;;20.97;100.00
53868;BME280;41577;47.470;19.080;2023-08-17T00:37:13;100429.97;;;20.97;100.00
53868;BME280;41577;47.470;19.080;2023-08-17T00:37:25;100431.06;;;20.96;100.00
53868;BME280;41577;47.470;19.080;2023-08-17T00:37:38;100423.75;;;20.97;100.00
53868;BME280;41577;47.470;19.080;2023-08-17T00:37:50;100427.28;;;20.97;100.00
53868;BME280;41577;47.470;19.080;2023-08-17T00:38:01;100425.38;;;20.98;100.00
53868;BME280;41577;47.470;19.080;2023-08-17T00:38:13;100426.47;;;20.97;100.00
53868;BME280;41577;47.470;19.080;2023-08-17T00:38:25;100434.34;;;20.98;100.00
53868;BME280;41577;47.470;19.080;2023-08-17T00:38:37;100428.94;;;20.98;100.00
53868;BME280;41577;47.470;19.080;2023-08-17T00:38:49;100430.78;;;20.98;100.00
53868;BME280;41577;47.470;19.080;2023-08-17T00:39:01;100428.94;;;20.98;100.00
53868;BME280;41577;47.470;19.080;2023-08-17T00:39:13;100431.63;;;20.98;100.00
53868;BME280;41577;47.470;19.080;2023-08-17T00:39:25;100422.66;;;20.98;100.00
53868;BME280;41577;47.470;19.080;2023-08-17T00:39:37;100437.06;;;20.98;100.00
53868;BME280;41577;47.470;19.080;2023-08-17T00:39:49;100431.63;;;20.98;100.00
53868;BME280;41577;47.470;19.080;2023-08-17T00:40:01;100422.66;;;20.98;100.00
53868;BME280;41577;47.470;19.080;2023-08-17T00:40:13;100426.22;;;20.98;100.00
53868;BME280;41577;47.470;19.080;2023-08-17T00:40:25;100426.22;;;20.98;100.00
53868;BME280;41577;47.470;19.080;2023-08-17T00:40:37;100429.75;;;20.99;100.00
53868;BME280;41577;47.470;19.080;2023-08-17T00:40:49;100428.09;;;20.98;100.00
53868;BME280;41577;47.470;19.080;2023-08-17T00:41:00;100424.31;;;20.99;100.00
53868;BME280;41577;47.470;19.080;2023-08-17T00:41:12;100429.97;;;20.97;100.00
53868;BME280;41577;47.470;19.080;2023-08-17T00:41:24;100429.97;;;20.97;100.00
53868;BME280;41577;47.470;19.080;2023-08-17T00:41:36;100432.69;;;20.97;100.00
53868;BME280;41577;47.470;19.080;2023-08-17T00:41:48;100432.69;;;20.97;100.00
53868;BME280;41577;47.470;19.080;2023-08-17T00:42:00;100429.97;;;20.97;100.00
53868;BME280;41577;47.470;19.080;2023-08-17T00:42:12;100425.38;;;20.98;100.00
53868;BME280;41577;47.470;19.080;2023-08-17T00:42:25;100426.22;;;20.98;100.00
53868;BME280;41577;47.470;19.080;2023-08-17T00:42:37;100437.06;;;20.98;100.00
53868;BME280;41577;47.470;19.080;2023-08-17T00:42:49;100429.97;;;20.97;100.00
53868;BME280;41577;47.470;19.080;2023-08-17T00:43:02;100426.22;;;20.98;100.00
53868;BME280;41577;47.470;19.080;2023-08-17T00:43:16;100431.63;;;20.98;100.00
53868;BME280;41577;47.470;19.080;2023-08-17T00:43:28;100424.31;;;20.99;100.00
53868;BME280;41577;47.470;19.080;2023-08-17T00:43:40;100431.88;;;20.97;100.00
53868;BME280;41577;47.470;19.080;2023-08-17T00:43:52;100428.09;;;20.98;100.00
53868;BME280;41577;47.470;19.080;2023-08-17T00:44:04;100437.06;;;20.98;100.00
53868;BME280;41577;47.470;19.080;2023-08-17T00:44:16;100426.22;;;20.98;100.00
53868;BME280;41577;47.470;19.080;2023-08-17T00:44:28;100423.50;;;20.98;100.00
53868;BME280;41577;47.470;19.080;2023-08-17T00:44:40;100435.97;;;20.99;100.00
53868;BME280;41577;47.470;19.080;2023-08-17T00:44:52;100425.38;;;20.98;100.00
53868;BME280;41577;47.470;19.080;2023-08-17T00:45:05;100428.09;;;20.98;100.00
53868;BME280;41577;47.470;19.080;2023-08-17T00:45:17;100427.03;;;20.99;100.00
53868;BME280;41577;47.470;19.080;2023-08-17T00:45:29;100432.47;;;20.99;100.00
53868;BME280;41577;47.470;19.080;2023-08-17T00:45:43;100431.63;;;20.98;100.00
53868;BME280;41577;47.470;19.080;2023-08-17T00:45:57;100432.69;;;20.97;100.00
53868;BME280;41577;47.470;19.080;2023-08-17T00:46:11;100431.63;;;20.98;100.00
53868;BME280;41577;47.470;19.080;2023-08-17T00:46:24;100429.97;;;20.97;100.00
53868;BME280;41577;47.470;19.080;2023-08-17T00:46:36;100433.50;;;20.98;100.00
53868;BME280;41577;47.470;19.080;2023-08-17T00:46:49;100434.59;;;20.97;100.00
53868;BME280;41577;47.470;19.080;2023-08-17T00:47:01;100435.41;;;20.97;100.00
53868;BME280;41577;47.470;19.080;2023-08-17T00:47:13;100432.69;;;20.97;100.00
53868;BME280;41577;47.470;19.080;2023-08-17T00:47:27;100431.06;;;20.96;100.00
53868;BME280;41577;47.470;19.080;2023-08-17T00:47:40;100433.78;;;20.96;100.00
53868;BME280;41577;47.470;19.080;2023-08-17T00:47:54;100433.78;;;20.96;100.00
53868;BME280;41577;47.470;19.080;2023-08-17T00:48:09;100433.78;;;20.96;100.00
53868;BME280;41577;47.470;19.080;2023-08-17T00:48:21;100432.69;;;20.97;100.00
53868;BME280;41577;47.470;19.080;2023-08-17T00:48:33;100439.22;;;20.96;100.00
53868;BME280;41577;47.470;19.080;2023-08-17T00:48:45;100437.56;;;20.95;100.00
53868;BME280;41577;47.470;19.080;2023-08-17T00:48:58;100441.09;;;20.96;100.00
53868;BME280;41577;47.470;19.080;2023-08-17T00:49:10;100437.56;;;20.95;100.00
53868;BME280;41577;47.470;19.080;2023-08-17T00:49:22;100439.22;;;20.96;100.00
53868;BME280;41577;47.470;19.080;2023-08-17T00:49:34;100443.56;;;20.97;100.00
53868;BME280;41577;47.470;19.080;2023-08-17T00:49:48;100434.03;;;20.95;100.00
53868;BME280;41577;47.470;19.080;2023-08-17T00:50:00;100444.66;;;20.96;100.00
53868;BME280;41577;47.470;19.080;2023-08-17T00:50:13;100436.75;;;20.95;100.00
53868;BME280;41577;47.470;19.080;2023-08-17T00:50:27;100435.66;;;20.96;100.00
53868;BME280;41577;47.470;19.080;2023-08-17T00:50:40;100440.28;;;20.95;100.00
53868;BME280;41577;47.470;19.080;2023-08-17T00:50:53;100435.09;;;20.94;100.00
53868;BME280;41577;47.470;19.080;2023-08-17T00:51:05;100434.03;;;20.95;100.00
53868;BME280;41577;47.470;19.080;2023-08-17T00:51:17;100432.66;;;20.92;100.00
53868;BME280;41577;47.470;19.080;2023-08-17T00:51:29;100435.38;;;20.92;100.00
53868;BME280;41577;47.470;19.080;2023-08-17T00:51:41;100435.09;;;20.94;100.00
53868;BME280;41577;47.470;19.080;2023-08-17T00:51:53;100438.88;;;20.93;100.00
53868;BME280;41577;47.470;19.080;2023-08-17T00:52:05;100443.50;;;20.92;100.00
53868;BME280;41577;47.470;19.080;2023-08-17T00:52:17;100438.06;;;20.92;100.00
53868;BME280;41577;47.470;19.080;2023-08-17T00:52:30;100437.81;;;20.94;100.00
53868;BME280;41577;47.470;19.080;2023-08-17T00:52:43;100440.53;;;20.94;100.00
53868;BME280;41577;47.470;19.080;2023-08-17T00:52:55;100446.78;;;20.94;100.00
53868;BME280;41577;47.470;19.080;2023-08-17T00:53:08;100437.81;;;20.94;100.00
53868;BME280;41577;47.470;19.080;2023-08-17T00:53:20;100444.31;;;20.93;100.00
53868;BME280;41577;47.470;19.080;2023-08-17T00:53:34;100443.22;;;20.94;100.00
53868;BME280;41577;47.470;19.080;2023-08-17T00:53:46;100443.22;;;20.94;100.00
53868;BME280;41577;47.470;19.080;2023-08-17T00:53:59;100442.69;;;20.92;100.00
53868;BME280;41577;47.470;19.080;2023-08-17T00:54:13;100447.28;;;20.91;100.00
53868;BME280;41577;47.470;19.080;2023-08-17T00:54:27;100445.13;;;20.93;100.00
53868;BME280;41577;47.470;19.080;2023-08-17T00:54:40;100441.84;;;20.91;100.00
53868;BME280;41577;47.470;19.080;2023-08-17T00:54:54;100443.50;;;20.92;100.00
53868;BME280;41577;47.470;19.080;2023-08-17T00:55:07;100446.22;;;20.92;100.00
53868;BME280;41577;47.470;19.080;2023-08-17T00:55:20;100437.25;;;20.92;100.00
53868;BME280;41577;47.470;19.080;2023-08-17T00:55:33;100443.50;;;20.92;100.00
53868;BME280;41577;47.470;19.080;2023-08-17T00:55:45;100443.50;;;20.92;100.00
53868;BME280;41577;47.470;19.080;2023-08-17T00:55:59;100439.97;;;20.92;100.00
53868;BME280;41577;47.470;19.080;2023-08-17T00:56:12;100431.00;;;20.91;100.00
53868;BME280;41577;47.470;19.080;2023-08-17T00:56:24;100442.69;;;20.92;100.00
53868;BME280;41577;47.470;19.080;2023-08-17T00:56:36;100443.75;;;20.91;100.00
53868;BME280;41577;47.470;19.080;2023-08-17T00:56:49;100436.41;;;20.91;100.00
53868;BME280;41577;47.470;19.080;2023-08-17T00:57:01;100442.94;;;20.90;100.00
53868;BME280;41577;47.470;19.080;2023-08-17T00:57:13;100435.59;;;20.91;100.00
53868;BME280;41577;47.470;19.080;2023-08-17T00:57:26;100440.22;;;20.90;100.00
53868;BME280;41577;47.470;19.080;2023-08-17T00:57:40;100438.31;;;20.91;100.00
53868;BME280;41577;47.470;19.080;2023-08-17T00:57:53;100446.47;;;20.91;100.00
53868;BME280;41577;47.470;19.080;2023-08-17T00:58:04;100438.31;;;20.91;100.00
53868;BME280;41577;47.470;19.080;2023-08-17T00:58:18;100441.84;;;20.91;100.00
53868;BME280;41577;47.470;19.080;2023-08-17T00:58:30;100444.56;;;20.91;100.00
53868;BME280;41577;47.470;19.080;2023-08-17T00:58:43;100441.03;;;20.91;100.00
53868;BME280;41577;47.470;19.080;2023-08-17T00:58:55;100448.38;;;20.90;100.00
53868;BME280;41577;47.470;19.080;2023-08-17T00:59:07;100439.41;;;20.89;100.00
53868;BME280;41577;47.470;19.080;2023-08-17T00:59:20;100448.59;;;20.88;100.00
53868;BME280;41577;47.470;19.080;2023-08-17T00:59:34;100440.47;;;20.88;100.00
53868;BME280;41577;47.470;19.080;2023-08-17T00:59:48;100441.28;;;20.89;100.00
53868;BME280;41577;47.470;19.080;2023-08-17T01:00:15;100444.50;;;20.86;100.00
53868;BME280;41577;47.470;19.080;2023-08-17T01:00:31;100444.28;;;20.87;100.00
53868;BME280;41577;47.470;19.080;2023-08-17T01:00:43;100445.31;;;20.86;100.00
53868;BME280;41577;47.470;19.080;2023-08-17T01:00:55;100447.78;;;20.88;100.00
53868;BME280;41577;47.470;19.080;2023-08-17T01:01:07;100450.50;;;20.88;100.00
53868;BME280;41577;47.470;19.080;2023-08-17T01:01:21;100445.31;;;20.86;100.00
53868;BME280;41577;47.470;19.080;2023-08-17T01:01:33;100446.16;;;20.87;100.00
53868;BME280;41577;47.470;19.080;2023-08-17T01:01:46;100445.31;;;20.86;100.00
53868;BME280;41577;47.470;19.080;2023-08-17T01:01:58;100448.88;;;20.87;100.00
53868;BME280;41577;47.470;19.080;2023-08-17T01:02:10;100446.16;;;20.87;100.00
53868;BME280;41577;47.470;19.080;2023-08-17T01:02:21;100447.47;;;20.84;100.00